sensor_id;sensor_type;location;lat;lon;timestamp;pressure;altitude;pressure_sealevel;temperature;humidity
15314;BME280;7757;52.626;4.746;2022-11-11T00:02:04;102431.28;;;19.63;64.19
15314;BME280;7757;52.626;4.746;2022-11-11T00:04:31;102422.72;;;19.66;64.09
15314;BME280;7757;52.626;4.746;2022-11-11T00:06:59;102423.31;;;19.62;63.88
15314;BME280;7757;52.626;4.746;2022-11-11T00:09:25;102423.13;;;19.63;63.56
15314;BME280;7757;52.626;4.746;2022-11-11T00:11:52;102427.06;;;19.61;63.90
15314;BME280;7757;52.626;4.746;2022-11-11T00:14:21;102431.06;;;19.65;63.85
15314;BME280;7757;52.626;4.746;2022-11-11T00:16:48;102449.22;;;19.64;64.12
15314;BME280;7757;52.626;4.746;2022-11-11T00:19:32;102436.72;;;19.63;64.15
15314;BME280;7757;52.626;4.746;2022-11-11T00:22:21;102432.94;;;19.64;64.04
15314;BME280;7757;52.626;4.746;2022-11-11T00:25:07;102430.44;;;19.63;63.99
15314;BME280;7757;52.626;4.746;2022-11-11T00:27:34;102432.09;;;19.64;64.23
15314;BME280;7757;52.626;4.746;2022-11-11T00:30:01;102436.72;;;19.63;63.80
15314;BME280;7757;52.626;4.746;2022-11-11T00:32:27;102446.72;;;19.63;63.88
15314;BME280;7757;52.626;4.746;2022-11-11T00:34:57;102439.19;;;19.65;63.77
15314;BME280;7757;52.626;4.746;2022-11-11T00:37:43;102451.31;;;19.62;63.79
15314;BME280;7757;52.626;4.746;2022-11-11T00:40:11;102462.16;;;19.62;63.81
15314;BME280;7757;52.626;4.746;2022-11-11T00:42:41;102456.31;;;19.59;64.23
15314;BME280;7757;52.626;4.746;2022-11-11T00:45:08;102474.91;;;19.62;64.15
15314;BME280;7757;52.626;4.746;2022-11-11T00:47:35;102468.63;;;19.61;64.65
15314;BME280;7757;52.626;4.746;2022-11-11T00:50:21;102463.00;;;19.63;64.04
15314;BME280;7757;52.626;4.746;2022-11-11T00:53:10;102459.66;;;19.61;64.18
15314;BME280;7757;52.626;4.746;2022-11-11T00:55:38;102455.06;;;19.61;64.11
15314;BME280;7757;52.626;4.746;2022-11-11T00:58:05;102455.91;;;19.62;64.33
15314;BME280;7757;52.626;4.746;2022-11-11T01:00:31;102438.59;;;19.63;63.80
15314;BME280;7757;52.626;4.746;2022-11-11T01:02:58;102440.66;;;19.61;64.50
15314;BME280;7757;52.626;4.746;2022-11-11T01:05:25;102432.50;;;19.61;64.29
15314;BME280;7757;52.626;4.746;2022-11-11T01:07:52;102424.78;;;19.58;64.45
15314;BME280;7757;52.626;4.746;2022-11-11T01:10:20;102438.59;;;19.63;64.37
15314;BME280;7757;52.626;4.746;2022-11-11T01:13:14;102442.31;;;19.62;64.51
15314;BME280;7757;52.626;4.746;2022-11-11T01:15:42;102430.03;;;19.66;64.07
15314;BME280;7757;52.626;4.746;2022-11-11T01:18:10;102418.75;;;19.62;64.60
15314;BME280;7757;52.626;4.746;2022-11-11T01:20:38;102417.91;;;19.62;64.59
15314;BME280;7757;52.626;4.746;2022-11-11T01:23:04;102422.28;;;19.63;64.33
15314;BME280;7757;52.626;4.746;2022-11-11T01:25:33;102407.03;;;19.62;64.67
15314;BME280;7757;52.626;4.746;2022-11-11T01:28:00;102411.00;;;19.59;64.33
15314;BME280;7757;52.626;4.746;2022-11-11T01:30:27;102423.13;;;19.63;64.73
15314;BME280;7757;52.626;4.746;2022-11-11T01:32:53;102423.31;;;19.62;64.71
15314;BME280;7757;52.626;4.746;2022-11-11T01:35:20;102410.59;;;19.62;64.69
15314;BME280;7757;52.626;4.746;2022-11-11T01:37:47;102417.28;;;19.60;64.62
15314;BME280;7757;52.626;4.746;2022-11-11T01:40:13;102414.16;;;19.63;64.59
15314;BME280;7757;52.626;4.746;2022-11-11T01:42:49;102409.56;;;19.63;64.35
15314;BME280;7757;52.626;4.746;2022-11-11T01:45:43;102419.16;;;19.59;64.34
15314;BME280;7757;52.626;4.746;2022-11-11T01:48:13;102417.28;;;19.60;64.82
15314;BME280;7757;52.626;4.746;2022-11-11T01:50:59;102414.34;;;19.61;64.79
15314;BME280;7757;52.626;4.746;2022-11-11T01:53:27;102418.94;;;19.61;64.87
15314;BME280;7757;52.626;4.746;2022-11-11T01:55:55;102421.47;;;19.62;64.74
15314;BME280;7757;52.626;4.746;2022-11-11T01:58:23;102429.59;;;19.62;64.70
15314;BME280;7757;52.626;4.746;2022-11-11T02:00:50;102422.50;;;19.61;64.69
15314;BME280;7757;52.626;4.746;2022-11-11T02:03:18;102424.78;;;19.58;64.86
15314;BME280;7757;52.626;4.746;2022-11-11T02:05:46;102428.97;;;19.60;64.83
15314;BME280;7757;52.626;4.746;2022-11-11T02:08:14;102429.16;;;19.59;64.74
15314;BME280;7757;52.626;4.746;2022-11-11T02:10:58;102439.44;;;19.63;64.36
15314;BME280;7757;52.626;4.746;2022-11-11T02:13:28;102440.88;;;19.59;64.84
15314;BME280;7757;52.626;4.746;2022-11-11T02:16:13;102439.00;;;19.60;64.73
15314;BME280;7757;52.626;4.746;2022-11-11T02:18:40;102441.91;;;19.58;64.58
15314;BME280;7757;52.626;4.746;2022-11-11T02:21:08;102449.84;;;19.60;64.70
15314;BME280;7757;52.626;4.746;2022-11-11T02:23:42;102451.72;;;19.59;64.87
15314;BME280;7757;52.626;4.746;2022-11-11T02:26:13;102448.16;;;19.59;64.89
15314;BME280;7757;52.626;4.746;2022-11-11T02:28:41;102439.41;;;19.57;64.79
15314;BME280;7757;52.626;4.746;2022-11-11T02:31:08;102450.03;;;19.58;64.78
15314;BME280;7757;52.626;4.746;2022-11-11T02:33:35;102457.16;;;19.59;64.84
15314;BME280;7757;52.626;4.746;2022-11-11T02:36:01;102460.28;;;19.56;64.52
15314;BME280;7757;52.626;4.746;2022-11-11T02:38:30;102468.00;;;19.59;64.89
15314;BME280;7757;52.626;4.746;2022-11-11T02:40:57;102470.28;;;19.56;65.01
15314;BME280;7757;52.626;4.746;2022-11-11T02:43:42;102485.31;;;19.58;64.84
15314;BME280;7757;52.626;4.746;2022-11-11T02:46:09;102473.44;;;19.59;64.77
15314;BME280;7757;52.626;4.746;2022-11-11T02:48:35;102480.34;;;19.62;64.64
15314;BME280;7757;52.626;4.746;2022-11-11T02:51:02;102472.56;;;19.52;64.86
15314;BME280;7757;52.626;4.746;2022-11-11T02:53:30;102481.78;;;19.58;65.26
15314;BME280;7757;52.626;4.746;2022-11-11T02:55:56;102473.63;;;19.51;64.89
15314;BME280;7757;52.626;4.746;2022-11-11T02:58:23;102482.84;;;19.57;64.61
15314;BME280;7757;52.626;4.746;2022-11-11T03:00:51;102474.03;;;19.55;65.09
15314;BME280;7757;52.626;4.746;2022-11-11T03:03:17;102463.41;;;19.53;64.98
15314;BME280;7757;52.626;4.746;2022-11-11T03:05:44;102463.41;;;19.53;64.60
15314;BME280;7757;52.626;4.746;2022-11-11T03:08:10;102461.53;;;19.54;65.03
15314;BME280;7757;52.626;4.746;2022-11-11T03:10:37;102459.44;;;19.56;64.85
15314;BME280;7757;52.626;4.746;2022-11-11T03:13:03;102450.03;;;19.52;65.13
15314;BME280;7757;52.626;4.746;2022-11-11T03:15:30;102447.13;;;19.53;65.08
15314;BME280;7757;52.626;4.746;2022-11-11T03:17:58;102450.88;;;19.52;65.12
15314;BME280;7757;52.626;4.746;2022-11-11T03:20:24;102452.72;;;19.52;64.88
15314;BME280;7757;52.626;4.746;2022-11-11T03:23:10;102455.03;;;19.55;64.75
15314;BME280;7757;52.626;4.746;2022-11-11T03:25:38;102461.72;;;19.52;64.87
15314;BME280;7757;52.626;4.746;2022-11-11T03:28:06;102454.22;;;19.54;64.81
15314;BME280;7757;52.626;4.746;2022-11-11T03:30:33;102464.88;;;19.56;64.97
15314;BME280;7757;52.626;4.746;2022-11-11T03:33:01;102455.44;;;19.52;64.90
15314;BME280;7757;52.626;4.746;2022-11-11T03:35:28;102455.44;;;19.52;64.82
15314;BME280;7757;52.626;4.746;2022-11-11T03:37:55;102456.69;;;19.49;64.42
15314;BME280;7757;52.626;4.746;2022-11-11T03:40:41;102456.06;;;19.47;64.43
15314;BME280;7757;52.626;4.746;2022-11-11T03:43:07;102460.88;;;19.52;64.61
15314;BME280;7757;52.626;4.746;2022-11-11T03:45:34;102460.88;;;19.52;64.88
15314;BME280;7757;52.626;4.746;2022-11-11T03:48:02;102457.34;;;19.51;65.20
15314;BME280;7757;52.626;4.746;2022-11-11T03:50:29;102457.53;;;19.49;64.92
15314;BME280;7757;52.626;4.746;2022-11-11T03:52:56;102441.66;;;19.46;64.75
15314;BME280;7757;52.626;4.746;2022-11-11T03:55:23;102447.72;;;19.48;64.97
15314;BME280;7757;52.626;4.746;2022-11-11T03:57:49;102454.22;;;19.47;64.74
15314;BME280;7757;52.626;4.746;2022-11-11T04:00:18;102447.94;;;19.47;65.13
15314;BME280;7757;52.626;4.746;2022-11-11T04:02:46;102439.56;;;19.48;64.96
15314;BME280;7757;52.626;4.746;2022-11-11T04:05:32;102447.72;;;19.48;64.81
15314;BME280;7757;52.626;4.746;2022-11-11T04:08:17;102441.03;;;19.44;65.13
15314;BME280;7757;52.626;4.746;2022-11-11T04:11:06;102450.66;;;19.47;64.94
15314;BME280;7757;52.626;4.746;2022-11-11T04:13:34;102451.28;;;19.49;64.83
15314;BME280;7757;52.626;4.746;2022-11-11T04:16:19;102450.66;;;19.47;64.95
15314;BME280;7757;52.626;4.746;2022-11-11T04:18:45;102455.22;;;19.46;64.74
15314;BME280;7757;52.626;4.746;2022-11-11T04:21:31;102461.06;;;19.43;64.90
15314;BME280;7757;52.626;4.746;2022-11-11T04:24:10;102467.34;;;19.44;65.08
15314;BME280;7757;52.626;4.746;2022-11-11T04:26:57;102452.09;;;19.43;64.92
15314;BME280;7757;52.626;4.746;2022-11-11T04:29:24;102462.53;;;19.46;65.07
15314;BME280;7757;52.626;4.746;2022-11-11T04:31:53;102466.50;;;19.43;64.73
15314;BME280;7757;52.626;4.746;2022-11-11T04:34:37;102462.13;;;19.42;64.88
15314;BME280;7757;52.626;4.746;2022-11-11T04:37:04;102464.84;;;19.42;64.69
15314;BME280;7757;52.626;4.746;2022-11-11T04:39:31;102456.72;;;19.42;64.78
15314;BME280;7757;52.626;4.746;2022-11-11T04:42:15;102452.94;;;19.43;64.58
15314;BME280;7757;52.626;4.746;2022-11-11T04:44:42;102470.06;;;19.44;64.80
15314;BME280;7757;52.626;4.746;2022-11-11T04:47:26;102462.94;;;19.43;64.66
15314;BME280;7757;52.626;4.746;2022-11-11T04:49:53;102462.94;;;19.43;64.63
15314;BME280;7757;52.626;4.746;2022-11-11T04:52:21;102459.59;;;19.41;64.85
15314;BME280;7757;52.626;4.746;2022-11-11T04:54:54;102455.66;;;19.43;65.12
15314;BME280;7757;52.626;4.746;2022-11-11T04:57:39;102446.88;;;19.41;64.64
15314;BME280;7757;52.626;4.746;2022-11-11T05:00:08;102457.75;;;19.41;65.01
15314;BME280;7757;52.626;4.746;2022-11-11T05:02:35;102450.03;;;19.45;64.73
15314;BME280;7757;52.626;4.746;2022-11-11T05:05:20;102447.09;;;19.46;64.73
15314;BME280;7757;52.626;4.746;2022-11-11T05:07:48;102449.38;;;19.43;64.80
15314;BME280;7757;52.626;4.746;2022-11-11T05:10:32;102433.75;;;19.45;64.95
15314;BME280;7757;52.626;4.746;2022-11-11T05:12:59;102450.22;;;19.43;64.91
15314;BME280;7757;52.626;4.746;2022-11-11T05:15:41;102447.91;;;19.40;65.44
15314;BME280;7757;52.626;4.746;2022-11-11T05:18:25;102454.63;;;19.44;65.09
15314;BME280;7757;52.626;4.746;2022-11-11T05:21:17;102448.97;;;19.39;64.97
15314;BME280;7757;52.626;4.746;2022-11-11T05:23:49;102449.38;;;19.43;64.78
15314;BME280;7757;52.626;4.746;2022-11-11T05:26:33;102438.75;;;19.41;65.23
15314;BME280;7757;52.626;4.746;2022-11-11T05:28:59;102437.28;;;19.39;65.19
15314;BME280;7757;52.626;4.746;2022-11-11T05:31:26;102451.47;;;19.41;65.33
15314;BME280;7757;52.626;4.746;2022-11-11T05:33:53;102462.53;;;19.39;65.07
15314;BME280;7757;52.626;4.746;2022-11-11T05:36:20;102465.25;;;19.39;64.86
15314;BME280;7757;52.626;4.746;2022-11-11T05:38:46;102464.19;;;19.40;64.93
15314;BME280;7757;52.626;4.746;2022-11-11T05:41:14;102464.19;;;19.40;64.97
15314;BME280;7757;52.626;4.746;2022-11-11T05:43:41;102460.63;;;19.40;65.27
15314;BME280;7757;52.626;4.746;2022-11-11T05:46:07;102458.13;;;19.38;65.28
15314;BME280;7757;52.626;4.746;2022-11-11T05:48:34;102464.19;;;19.40;64.79
15314;BME280;7757;52.626;4.746;2022-11-11T05:51:20;102451.41;;;19.34;64.89
15314;BME280;7757;52.626;4.746;2022-11-11T05:53:52;102461.22;;;19.35;64.78
15314;BME280;7757;52.626;4.746;2022-11-11T05:56:20;102456.00;;;19.34;65.19
15314;BME280;7757;52.626;4.746;2022-11-11T05:58:47;102456.66;;;19.36;64.95
15314;BME280;7757;52.626;4.746;2022-11-11T06:01:13;102462.06;;;19.36;65.11
15314;BME280;7757;52.626;4.746;2022-11-11T06:03:40;102474.59;;;19.37;64.70
15314;BME280;7757;52.626;4.746;2022-11-11T06:06:07;102476.25;;;19.38;65.13
15314;BME280;7757;52.626;4.746;2022-11-11T06:08:33;102476.66;;;19.35;64.88
15314;BME280;7757;52.626;4.746;2022-11-11T06:11:01;102479.59;;;19.33;65.16
15314;BME280;7757;52.626;4.746;2022-11-11T06:13:29;102486.28;;;19.37;64.90
15314;BME280;7757;52.626;4.746;2022-11-11T06:15:56;102493.56;;;19.37;64.98
15314;BME280;7757;52.626;4.746;2022-11-11T06:18:22;102489.41;;;19.34;64.79
15314;BME280;7757;52.626;4.746;2022-11-11T06:20:51;102486.91;;;19.33;65.34
15314;BME280;7757;52.626;4.746;2022-11-11T06:23:18;102486.69;;;19.34;64.94
15314;BME280;7757;52.626;4.746;2022-11-11T06:25:45;102479.78;;;19.32;65.08
15314;BME280;7757;52.626;4.746;2022-11-11T06:28:30;102487.75;;;19.33;65.08
15314;BME280;7757;52.626;4.746;2022-11-11T06:30:57;102484.19;;;19.33;64.84
15314;BME280;7757;52.626;4.746;2022-11-11T06:33:24;102486.69;;;19.34;65.06
15314;BME280;7757;52.626;4.746;2022-11-11T06:35:50;102482.72;;;19.37;65.02
15314;BME280;7757;52.626;4.746;2022-11-11T06:38:17;102487.34;;;19.36;64.74
15314;BME280;7757;52.626;4.746;2022-11-11T06:40:45;102493.38;;;19.38;64.98
15314;BME280;7757;52.626;4.746;2022-11-11T06:43:12;102500.91;;;19.36;65.13
15314;BME280;7757;52.626;4.746;2022-11-11T06:45:40;102486.91;;;19.33;65.12
15314;BME280;7757;52.626;4.746;2022-11-11T06:48:06;102503.81;;;19.35;64.84
15314;BME280;7757;52.626;4.746;2022-11-11T06:50:33;102509.22;;;19.35;65.34
15314;BME280;7757;52.626;4.746;2022-11-11T06:53:03;102510.91;;;19.36;64.84
15314;BME280;7757;52.626;4.746;2022-11-11T06:55:30;102509.66;;;19.38;64.67
15314;BME280;7757;52.626;4.746;2022-11-11T06:58:03;102513.25;;;19.39;65.10
15314;BME280;7757;52.626;4.746;2022-11-11T07:00:30;102523.22;;;19.38;64.77
15314;BME280;7757;52.626;4.746;2022-11-11T07:02:58;102533.91;;;19.40;64.93
15314;BME280;7757;52.626;4.746;2022-11-11T07:05:24;102532.25;;;19.39;64.83
15314;BME280;7757;52.626;4.746;2022-11-11T07:07:51;102541.69;;;19.49;64.62
15314;BME280;7757;52.626;4.746;2022-11-11T07:10:17;102540.03;;;19.55;64.45
15314;BME280;7757;52.626;4.746;2022-11-11T07:12:44;102547.75;;;19.58;64.54
15314;BME280;7757;52.626;4.746;2022-11-11T07:15:10;102546.91;;;19.58;64.52
15314;BME280;7757;52.626;4.746;2022-11-11T07:17:37;102550.06;;;19.61;64.50
15314;BME280;7757;52.626;4.746;2022-11-11T07:20:06;102541.91;;;19.61;64.28
15314;BME280;7757;52.626;4.746;2022-11-11T07:22:34;102545.06;;;19.65;64.42
15314;BME280;7757;52.626;4.746;2022-11-11T07:25:01;102548.22;;;19.68;64.43
15314;BME280;7757;52.626;4.746;2022-11-11T07:27:28;102548.41;;;19.67;64.40
15314;BME280;7757;52.626;4.746;2022-11-11T07:29:54;102553.03;;;19.73;64.04
15314;BME280;7757;52.626;4.746;2022-11-11T07:32:21;102558.03;;;19.76;64.09
15314;BME280;7757;52.626;4.746;2022-11-11T07:34:47;102558.47;;;19.79;63.65
15314;BME280;7757;52.626;4.746;2022-11-11T07:37:16;102555.97;;;19.78;64.03
15314;BME280;7757;52.626;4.746;2022-11-11T07:39:42;102564.94;;;19.78;64.39
15314;BME280;7757;52.626;4.746;2022-11-11T07:42:09;102581.22;;;19.78;64.28
15314;BME280;7757;52.626;4.746;2022-11-11T07:44:36;102576.44;;;19.74;63.96
15314;BME280;7757;52.626;4.746;2022-11-11T07:47:02;102566.81;;;19.71;64.05
15314;BME280;7757;52.626;4.746;2022-11-11T07:49:29;102575.16;;;19.70;64.12
15314;BME280;7757;52.626;4.746;2022-11-11T07:51:55;102574.97;;;19.71;64.25
15314;BME280;7757;52.626;4.746;2022-11-11T07:54:23;102585.81;;;19.71;63.85
15314;BME280;7757;52.626;4.746;2022-11-11T07:56:50;102585.41;;;19.74;64.03
15314;BME280;7757;52.626;4.746;2022-11-11T07:59:16;102595.63;;;19.72;63.58
15314;BME280;7757;52.626;4.746;2022-11-11T08:01:43;102582.03;;;19.72;63.82
15314;BME280;7757;52.626;4.746;2022-11-11T08:04:10;102590.19;;;19.72;63.79
15314;BME280;7757;52.626;4.746;2022-11-11T08:06:36;102604.38;;;19.68;63.56
15314;BME280;7757;52.626;4.746;2022-11-11T08:09:03;102606.69;;;19.71;63.50
15314;BME280;7757;52.626;4.746;2022-11-11T08:11:31;102610.44;;;19.70;64.01
15314;BME280;7757;52.626;4.746;2022-11-11T08:14:20;102610.03;;;19.66;64.02
15314;BME280;7757;52.626;4.746;2022-11-11T08:16:47;102610.22;;;19.65;63.34
15314;BME280;7757;52.626;4.746;2022-11-11T08:19:13;102627.97;;;19.67;63.82
15314;BME280;7757;52.626;4.746;2022-11-11T08:21:40;102629.84;;;19.67;63.31
15314;BME280;7757;52.626;4.746;2022-11-11T08:24:06;102633.41;;;19.67;63.76
15314;BME280;7757;52.626;4.746;2022-11-11T08:26:35;102640.94;;;19.65;63.40
15314;BME280;7757;52.626;4.746;2022-11-11T08:29:02;102643.81;;;19.64;63.50
15314;BME280;7757;52.626;4.746;2022-11-11T08:31:28;102634.88;;;19.63;63.60
15314;BME280;7757;52.626;4.746;2022-11-11T08:33:56;102636.94;;;19.61;63.73
15314;BME280;7757;52.626;4.746;2022-11-11T08:36:22;102645.06;;;19.61;63.61
15314;BME280;7757;52.626;4.746;2022-11-11T08:38:50;102648.72;;;19.75;63.75
15314;BME280;7757;52.626;4.746;2022-11-11T08:41:17;102642.88;;;19.84;63.40
15314;BME280;7757;52.626;4.746;2022-11-11T08:43:50;102656.03;;;19.87;64.00
15314;BME280;7757;52.626;4.746;2022-11-11T08:46:16;102662.31;;;19.88;64.04
15314;BME280;7757;52.626;4.746;2022-11-11T08:48:43;102660.44;;;19.88;63.36
15314;BME280;7757;52.626;4.746;2022-11-11T08:51:10;102669.44;;;19.89;63.94
15314;BME280;7757;52.626;4.746;2022-11-11T08:53:36;102668.19;;;19.91;63.33
15314;BME280;7757;52.626;4.746;2022-11-11T08:56:03;102669.25;;;19.97;63.56
15314;BME280;7757;52.626;4.746;2022-11-11T08:58:30;102670.28;;;19.96;63.40
15314;BME280;7757;52.626;4.746;2022-11-11T09:00:58;102676.16;;;19.99;62.94
15314;BME280;7757;52.626;4.746;2022-11-11T09:03:26;102666.34;;;19.98;63.45
15314;BME280;7757;52.626;4.746;2022-11-11T09:05:52;102675.97;;;20.01;62.98
15314;BME280;7757;52.626;4.746;2022-11-11T09:08:19;102669.69;;;20.00;63.28
15314;BME280;7757;52.626;4.746;2022-11-11T09:10:45;102664.03;;;20.02;63.19
15314;BME280;7757;52.626;4.746;2022-11-11T09:13:12;102681.22;;;20.09;63.49
15314;BME280;7757;52.626;4.746;2022-11-11T09:15:39;102677.66;;;20.09;63.43
15314;BME280;7757;52.626;4.746;2022-11-11T09:18:07;102675.78;;;20.09;62.56
15314;BME280;7757;52.626;4.746;2022-11-11T09:20:34;102683.75;;;20.17;62.45
15314;BME280;7757;52.626;4.746;2022-11-11T09:23:01;102689.41;;;20.22;62.43
15314;BME280;7757;52.626;4.746;2022-11-11T09:25:28;102689.84;;;20.26;62.32
15314;BME280;7757;52.626;4.746;2022-11-11T09:27:55;102692.56;;;20.26;62.17
15314;BME280;7757;52.626;4.746;2022-11-11T09:30:22;102696.13;;;20.26;61.88
15314;BME280;7757;52.626;4.746;2022-11-11T09:32:49;102695.53;;;20.31;61.90
15314;BME280;7757;52.626;4.746;2022-11-11T09:35:18;102703.03;;;20.29;62.13
15314;BME280;7757;52.626;4.746;2022-11-11T09:37:52;102699.91;;;20.32;62.17
15314;BME280;7757;52.626;4.746;2022-11-11T09:40:21;102706.81;;;20.34;62.00
15314;BME280;7757;52.626;4.746;2022-11-11T09:42:56;102702.22;;;20.35;62.19
15314;BME280;7757;52.626;4.746;2022-11-11T09:45:28;102706.63;;;20.36;61.95
15314;BME280;7757;52.626;4.746;2022-11-11T09:48:03;102710.38;;;20.35;62.10
15314;BME280;7757;52.626;4.746;2022-11-11T09:50:37;102717.28;;;20.37;62.12
15314;BME280;7757;52.626;4.746;2022-11-11T09:53:10;102709.53;;;20.34;62.05
15314;BME280;7757;52.626;4.746;2022-11-11T09:55:40;102720.22;;;20.36;61.57
15314;BME280;7757;52.626;4.746;2022-11-11T09:58:12;102720.22;;;20.36;61.99
15314;BME280;7757;52.626;4.746;2022-11-11T10:00:42;102715.63;;;20.36;61.40
15314;BME280;7757;52.626;4.746;2022-11-11T10:03:14;102730.06;;;20.37;61.79
15314;BME280;7757;52.626;4.746;2022-11-11T10:05:48;102727.97;;;20.39;61.27
15314;BME280;7757;52.626;4.746;2022-11-11T10:08:21;102728.78;;;20.33;61.69
15314;BME280;7757;52.626;4.746;2022-11-11T10:10:51;102718.97;;;20.38;61.39
15314;BME280;7757;52.626;4.746;2022-11-11T10:13:20;102727.13;;;20.38;61.39
15314;BME280;7757;52.626;4.746;2022-11-11T10:15:56;102732.31;;;20.27;62.08
15314;BME280;7757;52.626;4.746;2022-11-11T10:18:45;102731.84;;;20.23;61.50
15314;BME280;7757;52.626;4.746;2022-11-11T10:21:18;102734.13;;;20.20;61.72
15314;BME280;7757;52.626;4.746;2022-11-11T10:23:51;102734.56;;;20.23;62.14
15314;BME280;7757;52.626;4.746;2022-11-11T10:26:34;102730.19;;;20.22;62.62
15314;BME280;7757;52.626;4.746;2022-11-11T10:29:04;102729.59;;;20.27;62.03
15314;BME280;7757;52.626;4.746;2022-11-11T10:31:34;102723.13;;;20.28;62.19
15314;BME280;7757;52.626;4.746;2022-11-11T10:34:04;102725.00;;;20.27;62.06
15314;BME280;7757;52.626;4.746;2022-11-11T10:36:39;102726.66;;;20.28;62.81
15314;BME280;7757;52.626;4.746;2022-11-11T10:39:10;102726.69;;;20.35;61.92
15314;BME280;7757;52.626;4.746;2022-11-11T10:41:42;102731.94;;;20.36;62.35
15314;BME280;7757;52.626;4.746;2022-11-11T10:44:19;102735.25;;;20.38;61.83
15314;BME280;7757;52.626;4.746;2022-11-11T10:46:55;102737.13;;;20.38;61.64
15314;BME280;7757;52.626;4.746;2022-11-11T10:49:24;102739.66;;;20.39;61.63
15314;BME280;7757;52.626;4.746;2022-11-11T10:52:00;102731.50;;;20.39;61.65
15314;BME280;7757;52.626;4.746;2022-11-11T10:54:32;102735.88;;;20.40;61.83
15314;BME280;7757;52.626;4.746;2022-11-11T10:57:02;102731.28;;;20.41;61.83
15314;BME280;7757;52.626;4.746;2022-11-11T10:59:34;102740.28;;;20.41;61.49
15314;BME280;7757;52.626;4.746;2022-11-11T11:02:07;102738.59;;;20.40;61.45
15314;BME280;7757;52.626;4.746;2022-11-11T11:04:41;102725.25;;;20.39;61.28
15314;BME280;7757;52.626;4.746;2022-11-11T11:07:14;102746.38;;;20.50;61.07
15314;BME280;7757;52.626;4.746;2022-11-11T11:09:47;102725.44;;;20.37;61.34
15314;BME280;7757;52.626;4.746;2022-11-11T11:12:17;102735.47;;;20.43;61.17
15314;BME280;7757;52.626;4.746;2022-11-11T11:14:48;102735.91;;;20.47;61.68
15314;BME280;7757;52.626;4.746;2022-11-11T11:17:22;102738.81;;;20.39;61.71
15314;BME280;7757;52.626;4.746;2022-11-11T11:20:07;102735.66;;;20.35;61.67
15314;BME280;7757;52.626;4.746;2022-11-11T11:22:46;102737.13;;;20.38;61.69
15314;BME280;7757;52.626;4.746;2022-11-11T11:25:14;102735.06;;;20.33;61.48
15314;BME280;7757;52.626;4.746;2022-11-11T11:27:40;102732.78;;;20.37;61.30
15314;BME280;7757;52.626;4.746;2022-11-11T11:30:13;102738.38;;;20.35;61.55
15314;BME280;7757;52.626;4.746;2022-11-11T11:32:40;102736.94;;;20.33;61.03
15314;BME280;7757;52.626;4.746;2022-11-11T11:35:09;102736.31;;;20.31;61.10
15314;BME280;7757;52.626;4.746;2022-11-11T11:37:55;102735.47;;;20.30;61.55
15314;BME280;7757;52.626;4.746;2022-11-11T11:40:22;102734.19;;;20.26;61.38
15314;BME280;7757;52.626;4.746;2022-11-11T11:42:48;102727.72;;;20.27;62.12
15314;BME280;7757;52.626;4.746;2022-11-11T11:45:21;102729.19;;;20.30;62.33
15314;BME280;7757;52.626;4.746;2022-11-11T11:48:09;102727.31;;;20.30;62.35
15314;BME280;7757;52.626;4.746;2022-11-11T11:50:41;102723.75;;;20.30;62.07
15314;BME280;7757;52.626;4.746;2022-11-11T11:53:34;102720.84;;;20.44;62.22
15314;BME280;7757;52.626;4.746;2022-11-11T11:56:14;102729.47;;;20.61;61.87
15314;BME280;7757;52.626;4.746;2022-11-11T11:58:54;102738.91;;;20.72;61.60
15314;BME280;7757;52.626;4.746;2022-11-11T12:01:28;102720.69;;;20.79;61.43
15314;BME280;7757;52.626;4.746;2022-11-11T12:04:23;102724.06;;;20.81;61.64
15314;BME280;7757;52.626;4.746;2022-11-11T12:07:01;102729.50;;;20.81;61.16
15314;BME280;7757;52.626;4.746;2022-11-11T12:09:41;102740.59;;;20.86;61.40
15314;BME280;7757;52.626;4.746;2022-11-11T12:12:18;102733.72;;;20.90;61.53
15314;BME280;7757;52.626;4.746;2022-11-11T12:14:56;102743.53;;;20.97;61.19
15314;BME280;7757;52.626;4.746;2022-11-11T12:17:30;102736.22;;;20.98;61.25
15314;BME280;7757;52.626;4.746;2022-11-11T12:20:06;102730.38;;;21.01;60.83
15314;BME280;7757;52.626;4.746;2022-11-11T12:22:46;102723.88;;;21.02;60.42
15314;BME280;7757;52.626;4.746;2022-11-11T12:25:22;102722.22;;;21.07;60.26
15314;BME280;7757;52.626;4.746;2022-11-11T12:27:57;102731.88;;;21.10;60.58
15314;BME280;7757;52.626;4.746;2022-11-11T12:30:27;102723.06;;;21.08;60.08
15314;BME280;7757;52.626;4.746;2022-11-11T12:33:08;102720.75;;;21.11;60.03
15314;BME280;7757;52.626;4.746;2022-11-11T12:35:48;102723.47;;;21.11;60.68
15314;BME280;7757;52.626;4.746;2022-11-11T12:38:45;102726.00;;;21.13;59.85
15314;BME280;7757;52.626;4.746;2022-11-11T12:41:23;102726.63;;;21.15;60.34
15314;BME280;7757;52.626;4.746;2022-11-11T12:43:56;102727.66;;;21.21;60.03
15314;BME280;7757;52.626;4.746;2022-11-11T12:46:41;102732.06;;;21.22;60.23
15314;BME280;7757;52.626;4.746;2022-11-11T12:49:22;102739.59;;;21.33;59.59
15314;BME280;7757;52.626;4.746;2022-11-11T12:51:58;102736.88;;;21.33;59.99
15314;BME280;7757;52.626;4.746;2022-11-11T12:54:34;102735.41;;;21.24;59.92
15314;BME280;7757;52.626;4.746;2022-11-11T12:57:13;102736.06;;;21.19;59.82
15314;BME280;7757;52.626;4.746;2022-11-11T13:00:00;102744.00;;;21.21;60.54
15314;BME280;7757;52.626;4.746;2022-11-11T13:02:41;102747.56;;;21.21;60.73
15314;BME280;7757;52.626;4.746;2022-11-11T13:05:19;102745.06;;;21.20;60.01
15314;BME280;7757;52.626;4.746;2022-11-11T13:10:41;102748.81;;;21.19;60.43
15314;BME280;7757;52.626;4.746;2022-11-11T13:13:27;102742.97;;;21.22;59.99
15314;BME280;7757;52.626;4.746;2022-11-11T13:15:57;102746.28;;;21.24;60.04
15314;BME280;7757;52.626;4.746;2022-11-11T13:18:28;102741.91;;;21.23;59.96
15314;BME280;7757;52.626;4.746;2022-11-11T13:21:03;102740.44;;;21.20;59.94
15314;BME280;7757;52.626;4.746;2022-11-11T13:23:31;102755.72;;;21.21;60.21
15314;BME280;7757;52.626;4.746;2022-11-11T13:26:02;102753.44;;;21.25;59.73